Time;durP1;ratioP1;P1;durP2;ratioP2;P2;SDS_P1;SDS_P2;PMS_P1;PMS_P2;Temp;Humidity;BMP_temperature;BMP_pressure;BME280_temperature;BME280_humidity;BME280_pressure;Samples;Min_cycle;Max_cycle;Signal;HPM_P1;HPM_P2
2022/05/04 00:01:06;;;;;;;14.75;2.47;;;;;;;7.74;86.90;102056.75;5046944;28;20057;-80
2022/05/04 00:03:39;;;;;;;;;;;;;;;7.74;86.96;102057.63;5014690;28;20447;-78
2022/05/04 00:06:08;;;;;;;8.45;2.58;;;;;;;7.76;86.77;102052.44;5031707;28;19928;-80
2022/05/04 00:08:39;;;;;;;8.50;2.08;;;;;;;7.73;86.98;102053.25;5024233;28;20029;-79
2022/05/04 00:11:08;;;;;;;7.57;2.15;;;;;;;7.73;86.86;102057.56;5010534;28;20028;-80
2022/05/04 00:13:37;;;;;;;9.95;2.63;;;;;;;7.73;87.11;102050.63;4985395;28;20053;-79
2022/05/04 00:16:06;;;;;;;9.10;2.13;;;;;;;7.74;86.96;102054.13;5013654;28;20053;-80
2022/05/04 00:18:34;;;;;;;11.52;2.35;;;;;;;7.74;87.15;102057.63;5023508;28;20433;-80
2022/05/04 00:21:03;;;;;;;8.18;2.50;;;;;;;7.75;87.38;102062.06;5033695;28;20041;-79
2022/05/04 00:23:31;;;;;;;9.10;2.40;;;;;;;7.75;87.03;102059.44;5014373;28;20262;-79
2022/05/04 00:26:01;;;;;;;8.98;2.78;;;;;;;7.74;86.91;102060.25;5010080;28;20045;-81
2022/05/04 00:28:29;;;;;;;12.95;2.88;;;;;;;7.73;86.84;102055.88;5010672;28;20277;-79
2022/05/04 00:31:00;;;;;;;9.48;2.35;;;;;;;7.74;86.53;102052.38;5014404;28;20045;-79
2022/05/04 00:33:29;;;;;;;5.20;2.30;;;;;;;7.73;86.57;102050.63;4993213;28;20037;-79
2022/05/04 00:35:58;;;;;;;6.88;2.80;;;;;;;7.74;86.25;102054.13;4996225;28;20445;-79
2022/05/04 00:38:28;;;;;;;12.30;2.55;;;;;;;7.77;86.66;102046.38;5014682;28;20708;-79
2022/05/04 00:40:56;;;;;;;4.95;2.55;;;;;;;7.75;85.87;102048.94;5012935;28;20060;-79
2022/05/04 00:43:25;;;;;;;6.93;2.15;;;;;;;7.75;86.14;102042.78;4983431;28;20069;-79
2022/05/04 00:45:54;;;;;;;10.50;3.22;;;;;;;7.74;86.25;102044.50;4999681;28;20414;-80
2022/05/04 00:48:23;;;;;;;7.07;2.10;;;;;;;7.71;86.08;102047.06;4954866;28;20045;-81
2022/05/04 00:50:52;;;;;;;6.25;2.47;;;;;;;7.69;86.54;102040.81;5014132;28;20037;-80
2022/05/04 00:53:21;;;;;;;9.35;2.40;;;;;;;7.68;86.50;102036.44;5012493;28;20052;-80
2022/05/04 00:55:50;;;;;;;9.13;2.28;;;;;;;7.68;86.52;102038.19;5037759;28;20037;-79
2022/05/04 01:01:07;;;;;;;10.15;2.58;;;;;;;7.69;86.41;102035.59;5020436;28;20050;-80
2022/05/04 01:03:37;;;;;;;9.93;2.15;;;;;;;7.71;86.36;102039.19;4992127;28;20258;-79
2022/05/04 01:06:06;;;;;;;9.50;2.22;;;;;;;7.70;86.57;102037.38;5007192;28;20061;-80
2022/05/04 01:08:37;;;;;;;7.53;2.58;;;;;;;7.71;86.14;102035.63;5018422;28;20037;-79
2022/05/04 01:11:05;;;;;;;6.35;2.83;;;;;;;7.69;85.96;102035.59;5001438;28;20040;-80
2022/05/04 01:13:34;;;;;;;4.63;1.70;;;;;;;7.70;85.91;102028.63;4993696;28;20091;-80
2022/05/04 01:16:03;;;;;;;8.15;2.28;;;;;;;7.71;85.31;102033.94;5015540;28;20041;-81
2022/05/04 01:18:32;;;;;;;7.70;2.25;;;;;;;7.71;85.64;102035.63;5009466;28;20076;-79
2022/05/04 01:21:02;;;;;;;5.93;2.30;;;;;;;7.67;85.84;102029.41;5011155;28;20052;-81
2022/05/04 01:23:32;;;;;;;8.15;2.30;;;;;;;7.68;85.59;102031.19;4981792;28;20065;-80
2022/05/04 01:26:03;;;;;;;7.03;2.00;;;;;;;7.68;85.39;102031.19;5001259;28;20042;-79
2022/05/04 01:28:31;;;;;;;;;;;;;;;7.71;85.40;102035.63;4988848;28;20343;-79
2022/05/04 01:31:02;;;;;;;9.38;2.83;;;;;;;7.72;85.32;102040.94;4989626;28;20440;-80
2022/05/04 01:33:32;;;;;;;10.25;1.83;;;;;;;7.73;84.83;102039.22;5012549;28;20049;-79
2022/05/04 01:36:01;;;;;;;10.65;2.47;;;;;;;7.73;84.18;102037.50;5017127;28;20049;-80
2022/05/04 01:38:29;;;;;;;6.90;2.10;;;;;;;7.70;84.70;102039.13;4983950;28;20033;-79
2022/05/04 01:40:59;;;;;;;6.55;2.10;;;;;;;7.72;84.91;102042.69;5000638;28;20057;-80
2022/05/04 01:43:30;;;;;;;9.10;2.10;;;;;;;7.72;84.94;102037.44;5018757;28;20333;-80
2022/05/04 01:45:58;;;;;;;9.27;2.28;;;;;;;7.71;84.27;102035.63;5040320;28;20397;-80
2022/05/04 01:48:28;;;;;;;11.25;2.65;;;;;;;7.72;84.45;102040.06;5000587;28;20060;-81
2022/05/04 01:50:57;;;;;;;10.13;2.92;;;;;;;7.71;84.74;102044.44;4986845;28;20037;-80
2022/05/04 01:53:25;;;;;;;7.32;2.20;;;;;;;7.71;85.05;102039.19;5002324;28;20056;-80
2022/05/04 01:55:54;;;;;;;11.45;2.20;;;;;;;7.71;85.28;102031.31;5004635;28;20056;-80
2022/05/04 01:58:22;;;;;;;6.43;3.13;;;;;;;7.73;85.86;102033.97;4984298;28;20052;-79
2022/05/04 02:00:50;;;;;;;7.88;2.30;;;;;;;7.74;86.09;102034.00;5003887;28;20052;-82
2022/05/04 02:03:19;;;;;;;7.20;2.10;;;;;;;7.74;86.75;102034.00;5007783;28;20401;-80
2022/05/04 02:05:51;;;;;;;6.85;2.33;;;;;;;7.76;87.05;102032.34;5012290;28;20052;-80
2022/05/04 02:08:19;;;;;;;7.18;1.83;;;;;;;7.75;87.27;102027.03;4998378;28;20523;-80
2022/05/04 02:10:51;;;;;;;8.52;1.95;;;;;;;7.74;87.23;102028.78;5022164;28;20045;-80
2022/05/04 02:13:20;;;;;;;8.70;2.42;;;;;;;7.73;87.49;102033.97;5015037;28;20049;-79
2022/05/04 02:15:55;;;;;;;12.55;2.88;;;;;;;7.71;87.45;102027.78;5033242;28;20053;-81
2022/05/04 02:18:24;;;;;;;8.55;2.10;;;;;;;7.70;87.58;102023.38;4991177;28;20151;-81
2022/05/04 02:20:52;;;;;;;9.27;2.38;;;;;;;7.70;87.56;102034.75;5037372;28;20041;-79
2022/05/04 02:23:21;;;;;;;7.68;2.58;;;;;;;7.71;88.38;102026.06;5015571;28;20615;-80
2022/05/04 02:25:50;;;;;;;9.77;2.75;;;;;;;7.71;88.29;102026.06;5007807;28;20037;-79
2022/05/04 02:28:21;;;;;;;9.15;2.47;;;;;;;7.71;88.49;102028.69;5020062;28;20042;-79
2022/05/04 02:30:50;;;;;;;13.73;4.22;;;;;;;7.71;88.48;102020.81;5000490;28;20049;-79
2022/05/04 02:33:19;;;;;;;11.15;3.05;;;;;;;7.71;88.72;102015.56;4992863;28;20052;-80
2022/05/04 02:38:38;;;;;;;9.50;2.30;;;;;;;7.70;88.53;102019.00;5011941;28;20040;-79
2022/05/04 02:41:06;;;;;;;9.77;2.40;;;;;;;7.69;88.90;102016.34;5007735;28;20509;-79
2022/05/04 02:43:35;;;;;;;12.25;2.53;;;;;;;7.68;89.20;102014.56;4969846;28;20521;-79
2022/05/04 02:46:23;;;;;;;5.72;2.33;;;;;;;7.64;89.52;102012.66;5020217;28;20053;-80
2022/05/04 02:48:51;;;;;;;9.55;2.47;;;;;;;7.61;89.67;102009.09;4998910;28;20037;-80
2022/05/04 02:51:20;;;;;;;12.07;2.50;;;;;;;7.59;89.81;102010.78;4996132;28;20034;-81
2022/05/04 02:53:48;;;;;;;7.22;2.58;;;;;;;7.57;89.90;102007.22;5009741;28;20049;-81
2022/05/04 02:56:21;;;;;;;9.05;2.63;;;;;;;7.58;90.28;102003.75;5017503;28;20041;-79
2022/05/04 02:58:53;;;;;;;9.00;2.38;;;;;;;7.59;90.54;101997.66;5010243;28;20045;-79
2022/05/04 03:04:11;;;;;;;5.40;2.25;;;;;;;7.60;90.67;101996.84;4974781;28;20064;-80
2022/05/04 03:06:41;;;;;;;16.48;2.97;;;;;;;7.60;91.06;101996.84;5010773;28;20062;-79
2022/05/04 03:09:10;;;;;;;10.63;2.45;;;;;;;7.61;90.79;102000.34;5027267;28;20049;-80
2022/05/04 03:11:57;;;;;;;10.23;3.13;;;;;;;7.61;91.16;101993.34;4997446;28;20038;-79
2022/05/04 03:14:28;;;;;;;9.07;2.53;;;;;;;7.60;90.63;101995.94;5029947;28;20056;-79
2022/05/04 03:16:56;;;;;;;9.73;2.00;;;;;;;7.59;90.71;102002.91;5008816;28;20782;-79
2022/05/04 03:19:25;;;;;;;8.50;3.22;;;;;;;7.57;90.88;101991.47;4998164;28;20267;-80
2022/05/04 03:21:54;;;;;;;8.10;2.38;;;;;;;7.55;90.68;101994.91;5018359;28;20042;-81
2022/05/04 03:24:23;;;;;;;5.78;2.15;;;;;;;7.53;90.53;101988.69;5031406;28;20042;-80
2022/05/04 03:26:55;;;;;;;10.70;3.03;;;;;;;7.53;90.74;101991.31;5002226;28;20052;-80
2022/05/04 03:29:23;;;;;;;11.80;3.03;;;;;;;7.54;91.26;101987.84;4997460;28;20037;-79
2022/05/04 03:31:52;;;;;;;9.27;2.80;;;;;;;7.54;91.70;101987.84;5025862;28;20068;-79
2022/05/04 03:34:21;;;;;;;6.70;2.63;;;;;;;7.55;91.88;101992.28;4998464;28;20060;-79
2022/05/04 03:36:49;;;;;;;12.73;3.00;;;;;;;7.54;91.57;101993.09;5034025;28;20056;-79
2022/05/04 03:39:19;;;;;;;8.32;2.63;;;;;;;7.53;91.57;101989.59;5004804;28;20052;-80
2022/05/04 03:41:50;;;;;;;11.98;2.28;;;;;;;7.53;91.55;101979.09;5006372;28;20041;-79
2022/05/04 03:44:19;;;;;;;7.90;2.50;;;;;;;7.54;91.71;101991.38;4971270;28;20046;-81
2022/05/04 03:46:51;;;;;;;11.63;3.00;;;;;;;7.55;92.09;101989.66;5016306;28;20065;-79
2022/05/04 03:49:22;;;;;;;9.77;3.05;;;;;;;7.54;92.10;101988.75;5005285;28;20060;-80
2022/05/04 03:51:52;;;;;;;6.25;2.60;;;;;;;7.56;92.69;101991.41;5015373;28;20046;-79
2022/05/04 03:54:21;;;;;;;4.68;2.53;;;;;;;7.55;93.02;101993.16;5004053;28;20057;-80
2022/05/04 03:56:50;;;;;;;9.88;3.10;;;;;;;7.55;93.15;101987.91;5023087;28;20044;-80
2022/05/04 03:59:19;;;;;;;13.45;2.97;;;;;;;7.52;92.88;101987.78;5011204;28;20399;-81
2022/05/04 04:01:47;;;;;;;7.60;2.70;;;;;;;7.51;93.13;101990.38;5007450;28;20040;-79
2022/05/04 04:04:16;;;;;;;10.70;2.90;;;;;;;7.49;93.11;101992.94;4996547;28;20057;-80
2022/05/04 04:06:45;;;;;;;6.75;2.58;;;;;;;7.49;93.31;101989.44;4988282;28;20045;-79
2022/05/04 04:09:14;;;;;;;9.20;3.35;;;;;;;7.50;93.59;101994.72;5003491;28;20057;-80
2022/05/04 04:11:43;;;;;;;9.15;3.05;;;;;;;7.50;93.95;101984.22;4996609;28;20048;-79
2022/05/04 04:14:11;;;;;;;9.23;3.28;;;;;;;7.50;94.38;101993.84;5014450;28;20044;-80
2022/05/04 04:16:40;;;;;;;10.48;4.07;;;;;;;7.50;94.53;101994.72;4999593;28;20273;-80
2022/05/04 04:19:09;;;;;;;9.98;2.80;;;;;;;7.50;94.46;101999.97;5012456;28;20045;-80
2022/05/04 04:21:53;;;;;;;6.75;3.03;;;;;;;7.51;94.68;101993.00;4979714;28;20045;-79
2022/05/04 04:24:22;;;;;;;12.50;2.75;;;;;;;7.53;94.80;101991.31;4993281;28;20041;-80
2022/05/04 04:26:51;;;;;;;9.15;3.30;;;;;;;7.53;94.65;101989.59;5014452;28;20068;-80
2022/05/04 04:29:20;;;;;;;5.88;2.42;;;;;;;7.56;94.66;101988.78;5019730;28;20053;-79
2022/05/04 04:31:48;;;;;;;13.55;3.65;;;;;;;7.57;95.23;101995.84;5005533;28;20494;-79
2022/05/04 04:34:21;;;;;;;8.38;2.70;;;;;;;7.59;95.68;101994.16;4998797;28;20037;-80
2022/05/04 04:36:50;;;;;;;9.48;3.05;;;;;;;7.60;96.21;101990.69;5018005;28;20513;-80
2022/05/04 04:39:19;;;;;;;10.63;3.85;;;;;;;7.62;96.41;101999.50;5009055;28;20052;-80
2022/05/04 04:41:49;;;;;;;13.27;3.47;;;;;;;7.63;96.44;101989.91;4967196;28;20050;-81
2022/05/04 04:44:17;;;;;;;8.98;2.50;;;;;;;7.63;96.57;101996.03;4993213;28;20058;-80
2022/05/04 04:46:47;;;;;;;11.67;3.70;;;;;;;7.64;96.23;101994.28;5016584;28;20050;-79
2022/05/04 04:49:15;;;;;;;7.15;2.75;;;;;;;7.64;96.30;101997.81;4996179;28;20033;-82
2022/05/04 04:51:44;;;;;;;6.88;2.58;;;;;;;7.64;96.04;101995.22;4994847;28;20034;-79
2022/05/04 04:54:13;;;;;;;10.35;3.28;;;;;;;7.67;96.00;101997.03;4974982;28;20061;-80
2022/05/04 04:56:41;;;;;;;9.55;2.50;;;;;;;7.67;95.98;101997.91;5007080;28;20053;-79
2022/05/04 04:59:10;;;;;;;6.65;2.72;;;;;;;7.68;95.62;101999.72;5005511;28;20148;-81
2022/05/04 05:01:38;;;;;;;9.45;2.15;;;;;;;7.67;94.91;102002.28;4992902;28;20046;-81
2022/05/04 05:04:07;;;;;;;7.50;2.30;;;;;;;7.64;94.72;101992.59;5022642;28;20430;-80
2022/05/04 05:06:38;;;;;;;8.63;2.35;;;;;;;7.66;94.38;101998.78;5005069;28;20054;-80
2022/05/04 05:09:15;;;;;;;11.38;2.95;;;;;;;7.69;94.32;102003.22;4966644;28;20049;-80
2022/05/04 05:11:43;;;;;;;7.97;2.42;;;;;;;7.70;93.67;102002.38;5018231;28;20034;-80
2022/05/04 05:17:02;;;;;;;13.45;3.38;;;;;;;7.73;92.87;102000.75;4998963;28;20041;-80
2022/05/04 05:19:31;;;;;;;9.23;2.63;;;;;;;7.76;92.88;102002.59;4994160;28;20509;-80
2022/05/04 05:22:02;;;;;;;9.75;3.20;;;;;;;7.78;92.93;102001.78;5019141;28;20449;-80
2022/05/04 05:24:32;;;;;;;7.70;2.88;;;;;;;7.80;92.55;102005.34;5011604;28;20053;-80
2022/05/04 05:27:01;;;;;;;17.33;3.10;;;;;;;7.83;92.05;102008.94;5007868;28;20046;-80
2022/05/04 05:29:31;;;;;;;13.00;2.78;;;;;;;7.83;91.75;102008.94;5013114;28;20061;-79
2022/05/04 05:32:06;;;;;;;13.45;2.42;;;;;;;7.82;91.71;102008.03;4994835;28;20050;-80
2022/05/04 05:34:35;;;;;;;10.88;3.08;;;;;;;7.78;90.56;102001.78;5000619;28;20076;-79
2022/05/04 05:37:04;;;;;;;15.35;2.83;;;;;;;7.79;90.38;102000.97;5009323;28;20046;-80
2022/05/04 05:39:33;;;;;;;6.68;2.47;;;;;;;7.78;90.56;101998.28;5012467;28;20923;-80
2022/05/04 05:42:03;;;;;;;7.78;2.53;;;;;;;7.79;90.84;102000.06;5011562;28;20053;-81
2022/05/04 05:44:34;;;;;;;8.35;3.33;;;;;;;7.80;91.16;102001.84;5020537;28;20068;-79
2022/05/04 05:47:06;;;;;;;8.70;2.75;;;;;;;7.78;90.91;102011.41;4949329;28;20057;-79
2022/05/04 05:49:34;;;;;;;7.82;2.50;;;;;;;7.78;90.96;102000.91;5029828;28;20069;-78
2022/05/04 05:52:09;;;;;;;11.95;3.13;;;;;;;7.77;91.06;101999.13;5007355;28;20041;-81
2022/05/04 05:54:37;;;;;;;8.73;3.00;;;;;;;7.78;91.10;102001.78;4981852;28;20049;-79
2022/05/04 05:57:06;;;;;;;11.73;2.92;;;;;;;7.79;91.27;102007.94;4949753;28;20113;-79
2022/05/04 05:59:34;;;;;;;16.70;3.25;;;;;;;7.79;91.55;102011.44;5015978;28;20313;-79
2022/05/04 06:02:03;;;;;;;11.45;2.83;;;;;;;7.82;91.55;102010.66;4986900;28;20041;-80
2022/05/04 06:04:32;;;;;;;9.02;2.83;;;;;;;7.85;91.72;102007.25;5009002;28;20057;-82
2022/05/04 06:07:02;;;;;;;7.88;2.97;;;;;;;7.87;91.33;102006.47;5030141;28;20045;-79
2022/05/04 06:09:30;;;;;;;14.35;2.97;;;;;;;7.91;91.43;102012.69;5012063;28;20191;-79
2022/05/04 06:12:03;;;;;;;10.75;3.15;;;;;;;7.93;91.25;102008.38;4978365;28;20406;-80
2022/05/04 06:14:33;;;;;;;8.13;2.97;;;;;;;7.98;90.90;102006.81;5019852;28;20056;-79
2022/05/04 06:17:04;;;;;;;10.95;2.65;;;;;;;8.00;90.90;102006.00;5012431;28;20041;-78
2022/05/04 06:19:35;;;;;;;11.50;3.17;;;;;;;8.02;90.56;102000.81;5016444;28;20285;-79
2022/05/04 06:22:05;;;;;;;9.30;3.05;;;;;;;8.02;90.41;102003.44;4988326;28;20041;-79
2022/05/04 06:24:34;;;;;;;9.32;3.00;;;;;;;8.03;89.95;101996.44;4998239;28;20044;-79
2022/05/04 06:27:02;;;;;;;9.38;2.58;;;;;;;8.04;90.59;101995.63;4975554;28;20064;-79
2022/05/04 06:35:08;;;;;;;6.72;2.90;;;;;;;8.11;89.89;102011.63;5016285;28;20049;-80
2022/05/04 06:37:37;;;;;;;7.68;2.10;;;;;;;8.15;89.31;102003.00;5004090;28;20033;-80
2022/05/04 06:40:06;;;;;;;5.22;2.28;;;;;;;8.18;89.64;102000.47;5015082;28;20030;-79
2022/05/04 06:42:35;;;;;;;6.93;2.17;;;;;;;8.24;89.03;102009.38;4999384;28;20033;-79
2022/05/04 06:45:06;;;;;;;9.97;2.80;;;;;;;8.29;88.98;102005.16;5009365;28;20219;-80
2022/05/04 06:47:35;;;;;;;8.13;2.47;;;;;;;8.33;88.78;101999.16;4993718;28;20036;-79
2022/05/04 06:50:05;;;;;;;8.13;2.40;;;;;;;8.37;88.52;102012.44;5022206;28;20056;-79
2022/05/04 06:52:34;;;;;;;9.75;2.55;;;;;;;8.45;88.33;102006.53;5019812;28;20041;-79
2022/05/04 06:55:04;;;;;;;12.85;3.30;;;;;;;8.52;88.63;102013.75;5022963;28;20048;-80
2022/05/04 06:57:32;;;;;;;9.53;2.30;;;;;;;8.56;87.71;102013.91;5000157;28;20045;-79
2022/05/04 07:00:06;;;;;;;11.13;2.22;;;;;;;8.58;86.41;102019.19;5006706;28;20044;-79
2022/05/04 07:02:35;;;;;;;11.32;2.40;;;;;;;8.62;86.34;102021.09;4998834;28;20034;-79
2022/05/04 07:05:05;;;;;;;7.15;2.22;;;;;;;8.63;85.44;102012.34;5024564;28;20059;-79
2022/05/04 07:07:34;;;;;;;8.88;2.20;;;;;;;8.66;85.13;102012.44;4997663;28;20056;-79
2022/05/04 07:10:03;;;;;;;8.15;2.05;;;;;;;8.70;84.45;102016.94;5026379;28;20418;-80
2022/05/04 07:12:32;;;;;;;11.95;2.30;;;;;;;8.75;84.36;102017.97;5033502;28;20041;-80
2022/05/04 07:15:01;;;;;;;8.73;2.33;;;;;;;8.81;83.98;102025.16;4995281;28;20037;-79
2022/05/04 07:17:30;;;;;;;6.47;2.45;;;;;;;8.84;84.00;102016.47;5010208;28;20037;-81
2022/05/04 07:19:59;;;;;;;13.98;2.50;;;;;;;8.90;83.89;102008.75;5009704;28;20406;-79
2022/05/04 07:22:28;;;;;;;12.00;2.42;;;;;;;8.94;83.99;102007.97;4981335;28;20422;-79
2022/05/04 07:24:56;;;;;;;5.07;2.15;;;;;;;8.98;83.39;102013.38;5000875;28;20041;-80
2022/05/04 07:27:25;;;;;;;17.92;2.85;;;;;;;9.04;83.32;102011.78;5006703;28;20044;-80
2022/05/04 07:29:54;;;;;;;8.00;2.47;;;;;;;9.10;83.25;102019.84;5004821;28;20107;-79
2022/05/04 07:32:23;;;;;;;6.18;1.90;;;;;;;9.11;81.26;102026.84;5009161;28;20045;-79
2022/05/04 07:34:52;;;;;;;9.82;2.40;;;;;;;9.14;81.94;102017.31;5019038;28;20057;-80
2022/05/04 07:37:20;;;;;;;6.80;2.35;;;;;;;9.21;82.10;102023.66;4993770;28;20446;-80
2022/05/04 07:42:36;;;;;;;7.50;1.90;;;;;;;9.23;80.92;102023.72;5012427;28;20041;-80
2022/05/04 07:45:08;;;;;;;7.53;1.90;;;;;;;9.25;80.99;102015.00;4974287;28;20040;-80
2022/05/04 07:47:37;;;;;;;12.05;2.75;;;;;;;9.28;80.59;102028.25;5026193;28;20056;-82
2022/05/04 07:50:11;;;;;;;6.68;2.45;;;;;;;9.29;79.60;102022.13;5013117;28;20053;-79
2022/05/04 07:52:41;;;;;;;8.68;2.53;;;;;;;9.30;80.29;102028.25;5036807;28;20049;-80
2022/05/04 07:55:12;;;;;;;6.35;1.90;;;;;;;9.32;79.48;102031.84;5010398;28;20372;-79
2022/05/04 07:57:46;;;;;;;11.85;2.00;;;;;;;9.32;79.72;102022.22;5014544;28;20052;-82
2022/05/04 08:05:49;;;;;;;7.72;2.00;;;;;;;9.46;79.70;102042.72;5022538;28;20052;-78
2022/05/04 08:08:19;;;;;;;7.63;2.03;;;;;;;9.50;78.91;102029.69;4988686;28;20053;-80
2022/05/04 08:10:47;;;;;;;8.27;1.67;;;;;;;9.52;78.81;102033.25;5011062;28;20046;-79
2022/05/04 08:13:19;;;;;;;8.70;1.90;;;;;;;9.57;78.64;102039.53;5013294;28;20056;-80
2022/05/04 08:15:49;;;;;;;6.68;2.05;;;;;;;9.61;77.57;102034.34;5008226;28;20059;-80
2022/05/04 08:18:20;;;;;;;9.65;2.00;;;;;;;9.63;78.09;102037.91;5016747;28;20041;-80
2022/05/04 08:20:49;;;;;;;9.35;2.28;;;;;;;9.63;77.94;102046.69;5019741;28;20033;-80
2022/05/04 08:23:23;;;;;;;7.15;2.13;;;;;;;9.64;77.88;102040.59;5011684;28;20052;-80
2022/05/04 08:25:56;;;;;;;3.58;1.73;;;;;;;9.68;78.09;102034.56;5019653;28;20053;-79
2022/05/04 08:28:25;;;;;;;7.97;1.95;;;;;;;9.75;77.93;102039.13;4981450;28;20049;-81
2022/05/04 08:30:54;;;;;;;4.65;2.05;;;;;;;9.85;77.37;102044.59;5018039;28;20055;-80
2022/05/04 08:33:23;;;;;;;6.20;2.08;;;;;;;9.89;76.72;102049.13;5013795;28;20041;-79
2022/05/04 08:35:52;;;;;;;8.07;2.20;;;;;;;9.88;76.15;102045.56;5016264;28;20044;-81
2022/05/04 08:38:22;;;;;;;8.07;1.90;;;;;;;9.91;76.72;102053.56;5038642;28;20521;-80
2022/05/04 08:40:55;;;;;;;5.78;1.90;;;;;;;9.96;76.35;102048.41;5019737;28;21930;-80
2022/05/04 08:43:24;;;;;;;7.72;1.80;;;;;;;10.00;75.89;102050.28;5026254;28;20481;-80
2022/05/04 08:45:54;;;;;;;5.60;2.20;;;;;;;9.99;74.86;102044.97;5023385;28;20042;-79
2022/05/04 08:48:23;;;;;;;8.15;2.25;;;;;;;9.98;75.19;102056.34;4980235;28;20056;-80
2022/05/04 08:50:54;;;;;;;8.27;2.65;;;;;;;9.99;75.44;102048.50;5016813;28;20045;-79
2022/05/04 08:53:26;;;;;;;5.22;2.00;;;;;;;9.96;74.80;102043.13;5000616;28;20053;-80
2022/05/04 08:55:55;;;;;;;11.70;2.80;;;;;;;9.93;75.24;102057.13;5017083;28;20259;-79
2022/05/04 08:58:23;;;;;;;7.57;2.20;;;;;;;9.96;74.87;102053.66;5024425;28;20083;-78
2022/05/04 09:00:54;;;;;;;5.32;1.60;;;;;;;9.95;74.84;102046.63;5016556;28;20064;-79
2022/05/04 09:03:23;;;;;;;;;;;;;;;9.94;72.53;102044.84;4984657;28;20049;-79
2022/05/04 09:05:54;;;;;;;7.35;2.08;;;;;;;9.94;74.91;102048.38;5024027;28;19960;-79
2022/05/04 09:09:12;;;;;;;8.25;2.25;;;;;;;10.02;74.24;102043.31;5017041;28;20394;-81
2022/05/04 09:11:44;;;;;;;3.58;1.88;;;;;;;10.02;74.68;102050.28;4992342;28;20045;-80
2022/05/04 09:14:20;;;;;;;7.25;2.50;;;;;;;10.04;74.93;102046.88;5028490;28;20056;-80
2022/05/04 09:16:49;;;;;;;7.82;2.03;;;;;;;10.11;75.61;102046.16;5028869;28;20253;-81
2022/05/04 09:19:19;;;;;;;8.55;2.53;;;;;;;10.22;75.33;102041.13;4994788;28;20057;-79
2022/05/04 09:21:48;;;;;;;9.95;2.63;;;;;;;10.29;75.28;102039.56;5016941;28;20739;-81
2022/05/04 09:24:27;;;;;;;5.68;2.28;;;;;;;10.33;73.81;102050.22;5000615;28;20045;-79
2022/05/04 09:26:57;;;;;;;5.45;1.80;;;;;;;10.35;73.89;102052.91;4997781;28;20053;-79
2022/05/04 09:29:37;;;;;;;10.15;2.75;;;;;;;10.38;73.79;102045.06;5026630;28;20064;-80
2022/05/04 09:32:14;;;;;;;4.43;1.60;;;;;;;10.43;73.74;102055.69;5022164;28;20053;-79
2022/05/04 09:34:50;;;;;;;9.13;2.47;;;;;;;10.47;73.98;102047.00;4998215;28;20044;-80
2022/05/04 09:45:56;;;;;;;8.10;2.35;;;;;;;10.54;73.19;102046.28;5010848;28;20041;-79
2022/05/04 09:48:33;;;;;;;7.03;2.20;;;;;;;10.54;72.85;102039.28;4988055;28;20061;-79
2022/05/04 09:51:04;;;;;;;4.40;2.15;;;;;;;10.56;72.45;102041.06;4977953;28;20059;-79
2022/05/04 09:53:34;;;;;;;5.13;2.33;;;;;;;10.56;72.37;102033.16;5033914;28;20058;-79
2022/05/04 09:56:03;;;;;;;6.35;2.15;;;;;;;10.65;73.20;102036.88;5025621;28;20041;-80
2022/05/04 09:58:32;;;;;;;8.35;2.88;;;;;;;10.69;72.40;102033.44;5036293;28;20045;-80
2022/05/04 10:01:02;;;;;;;8.88;2.53;;;;;;;10.73;71.59;102035.28;5004982;28;20049;-80
2022/05/04 10:03:38;;;;;;;10.93;2.90;;;;;;;10.77;71.57;102035.38;5010615;28;20072;-79
2022/05/04 10:06:08;;;;;;;6.93;2.13;;;;;;;10.78;71.38;102030.13;5016399;28;20418;-79
2022/05/04 10:08:37;;;;;;;5.97;2.20;;;;;;;10.84;70.88;102032.91;5018726;28;20275;-79
2022/05/04 10:11:06;;;;;;;7.10;1.70;;;;;;;10.95;71.34;102024.34;5032430;28;20044;-79
2022/05/04 10:13:38;;;;;;;8.73;2.53;;;;;;;11.04;71.57;102029.75;4994561;28;20136;-78
2022/05/04 10:16:10;;;;;;;4.80;1.90;;;;;;;11.09;70.94;102025.47;4986926;28;20052;-80
2022/05/04 10:18:43;;;;;;;7.55;1.80;;;;;;;11.15;70.69;102027.34;5019224;28;20045;-79
2022/05/04 10:21:15;;;;;;;5.95;1.88;;;;;;;11.22;69.82;102029.25;5035272;28;20048;-80
2022/05/04 10:23:57;;;;;;;8.40;1.85;;;;;;;11.23;68.61;102023.13;5005783;28;20049;-78
2022/05/04 10:26:37;;;;;;;5.15;1.98;;;;;;;11.25;67.39;102018.78;5008696;28;20049;-80
2022/05/04 10:32:32;;;;;;;7.82;1.95;;;;;;;11.35;67.78;102011.91;5021841;28;20033;-80
2022/05/04 10:35:26;;;;;;;10.80;2.30;;;;;;;11.46;67.08;102018.28;5034812;28;20048;-79
2022/05/04 10:37:58;;;;;;;7.38;1.90;;;;;;;11.56;67.76;102011.41;4990056;28;20041;-80
2022/05/04 10:40:44;;;;;;;7.97;1.88;;;;;;;11.64;67.50;102010.66;5014659;28;20072;-79
2022/05/04 10:43:47;;;;;;;6.63;2.38;;;;;;;11.67;67.86;102008.09;5031355;28;20045;-78
2022/05/04 10:46:21;;;;;;;7.45;2.15;;;;;;;11.67;69.43;102008.09;5020829;28;20044;-78
2022/05/04 10:48:55;;;;;;;6.18;2.00;;;;;;;11.70;67.90;102012.53;5007746;28;20041;-81
2022/05/04 10:51:29;;;;;;;10.32;2.10;;;;;;;11.85;67.22;102004.88;5028262;28;20041;-79
2022/05/04 10:54:09;;;;;;;7.30;1.92;;;;;;;11.95;67.21;102005.94;4998768;28;20045;-79
2022/05/04 10:56:49;;;;;;;7.07;2.30;;;;;;;11.98;66.86;101997.19;5016446;28;20049;-78
2022/05/04 10:59:25;;;;;;;11.80;2.25;;;;;;;12.01;67.30;101998.13;5019246;28;20048;-78
2022/05/04 11:02:12;;;;;;;4.93;2.15;;;;;;;12.04;65.14;102007.81;5020511;28;20049;-78
2022/05/04 11:04:41;;;;;;;5.72;1.95;;;;;;;11.93;66.68;102004.13;5004210;28;20572;-78
2022/05/04 11:07:12;;;;;;;5.70;2.15;;;;;;;11.91;67.33;102006.78;4997516;28;20047;-78
2022/05/04 11:09:43;;;;;;;7.93;2.13;;;;;;;11.97;67.41;102017.44;4984000;28;20060;-79
2022/05/04 11:12:12;;;;;;;8.10;2.13;;;;;;;12.08;68.04;102001.75;4997063;28;20085;-79
2022/05/04 11:14:42;;;;;;;6.22;1.60;;;;;;;12.26;67.91;102002.00;5034839;28;20155;-79
2022/05/04 11:17:13;;;;;;;6.95;2.08;;;;;;;12.37;67.27;102004.81;5008183;28;20036;-79
2022/05/04 11:19:47;;;;;;;7.15;1.60;;;;;;;12.40;67.08;102004.88;5049399;28;20029;-78
2022/05/04 11:22:17;;;;;;;7.22;1.67;;;;;;;12.41;66.87;102001.34;5070311;28;20057;-79
2022/05/04 11:25:06;;;;;;;2.85;1.42;;;;;;;12.29;66.44;101998.53;4997936;28;20055;-80
2022/05/04 11:27:35;;;;;;;5.25;2.03;;;;;;;12.27;67.12;102000.28;4999720;28;20047;-79
2022/05/04 11:30:05;;;;;;;8.10;1.77;;;;;;;12.28;67.31;102002.91;5013226;28;20041;-78
2022/05/04 11:32:34;;;;;;;7.68;1.60;;;;;;;12.35;67.69;102003.91;4991692;28;20064;-80
2022/05/04 11:35:04;;;;;;;5.93;1.57;;;;;;;12.44;66.95;101998.75;4983481;28;20045;-78
2022/05/04 11:37:33;;;;;;;6.32;2.10;;;;;;;12.47;66.52;101998.78;4986937;28;20180;-79
2022/05/04 11:40:15;;;;;;;6.53;1.90;;;;;;;12.50;65.96;102000.59;4987210;28;20037;-79
2022/05/04 11:42:45;;;;;;;6.65;2.08;;;;;;;12.55;66.13;102003.28;5013370;28;20429;-79
2022/05/04 11:45:17;;;;;;;3.00;1.50;;;;;;;12.61;65.80;102006.03;5042884;28;20037;-79
2022/05/04 11:47:49;;;;;;;4.93;2.00;;;;;;;12.62;65.88;101991.94;5002504;28;20046;-79
2022/05/04 11:50:19;;;;;;;12.32;2.13;;;;;;;12.71;65.29;101996.47;4999045;28;20049;-80
2022/05/04 11:52:47;;;;;;;5.82;1.80;;;;;;;12.89;65.46;101991.38;4986077;28;20321;-80
2022/05/04 11:55:16;;;;;;;4.88;2.03;;;;;;;13.02;64.80;101993.31;5019609;28;20045;-80
2022/05/04 11:57:49;;;;;;;6.47;1.70;;;;;;;13.21;63.25;101988.19;5011674;28;20060;-79
2022/05/04 12:00:17;;;;;;;5.25;1.70;;;;;;;13.20;63.16;101989.97;5008079;28;20167;-79
2022/05/04 12:02:46;;;;;;;7.70;2.20;;;;;;;13.08;63.32;101984.56;4986185;28;20056;-80
2022/05/04 12:05:16;;;;;;;5.63;1.73;;;;;;;12.98;63.74;101983.53;4986215;28;20060;-79
2022/05/04 12:07:49;;;;;;;4.05;1.60;;;;;;;12.95;63.77;101990.56;5055894;28;20630;-81
2022/05/04 12:10:22;;;;;;;8.77;2.38;;;;;;;12.93;64.05;101989.66;5034466;28;20048;-81
2022/05/04 12:13:04;;;;;;;6.85;1.75;;;;;;;12.87;63.75;101987.81;5019999;28;20050;-80
2022/05/04 12:15:34;;;;;;;7.35;1.73;;;;;;;12.97;63.19;101980.91;5015071;28;20381;-80
2022/05/04 12:18:08;;;;;;;4.35;1.90;;;;;;;13.15;63.92;101978.44;5029904;28;20049;-79
2022/05/04 12:20:38;;;;;;;5.43;1.80;;;;;;;13.38;64.08;101972.53;5004146;28;20137;-80
2022/05/04 12:23:06;;;;;;;3.08;1.40;;;;;;;13.48;63.02;101979.69;5023247;28;20044;-81